Time;durP1;ratioP1;P1;durP2;ratioP2;P2;SDS_P1;SDS_P2;PMS_P1;PMS_P2;Temp;Humidity;BMP_temperature;BMP_pressure;BME280_temperature;BME280_humidity;BME280_pressure;Samples;Min_cycle;Max_cycle;Signal;HPM_P1;HPM_P2
2024/01/22 00:01:42;;;;;;;7.38;3.45;;;7.80;99.90;;;;;;4999123;28;20206;-73
2024/01/22 00:04:10;;;;;;;5.90;2.90;;;7.90;99.90;;;;;;4993012;28;20210;-73
2024/01/22 00:06:40;;;;;;;7.97;3.35;;;7.90;99.90;;;;;;5000730;28;20202;-74
2024/01/22 00:09:07;;;;;;;7.97;3.83;;;7.90;99.90;;;;;;4999134;28;20209;-73
2024/01/22 00:11:34;;;;;;;6.68;3.28;;;8.00;99.90;;;;;;4996505;28;20207;-73
2024/01/22 00:14:01;;;;;;;7.30;3.10;;;8.00;99.90;;;;;;5003393;28;20230;-74
2024/01/22 00:16:28;;;;;;;5.95;2.92;;;8.00;99.90;;;;;;5007913;28;20604;-73
2024/01/22 00:18:55;;;;;;;6.63;3.03;;;8.10;99.90;;;;;;5006096;28;20222;-74
2024/01/22 00:21:22;;;;;;;4.00;2.88;;;8.10;99.90;;;;;;5006939;28;20648;-74
2024/01/22 00:23:51;;;;;;;5.95;2.78;;;8.00;99.90;;;;;;5000497;28;20292;-74
2024/01/22 00:26:18;;;;;;;5.55;3.47;;;8.10;99.90;;;;;;5011738;28;20632;-74
2024/01/22 00:28:45;;;;;;;6.53;2.80;;;8.10;99.90;;;;;;4999884;28;20206;-73
2024/01/22 00:31:11;;;;;;;4.93;2.72;;;8.10;99.90;;;;;;5010892;28;20209;-75
2024/01/22 00:33:38;;;;;;;5.28;2.70;;;8.20;99.90;;;;;;4996805;28;20273;-75
2024/01/22 00:36:06;;;;;;;5.15;2.53;;;8.10;99.90;;;;;;5005902;28;20203;-74
2024/01/22 00:38:33;;;;;;;3.88;3.03;;;8.10;99.90;;;;;;5005797;28;20260;-74
2024/01/22 00:41:04;;;;;;;4.97;3.30;;;8.10;99.90;;;;;;5012496;28;20259;-74
2024/01/22 00:43:31;;;;;;;7.20;2.53;;;8.10;99.90;;;;;;4998647;28;20300;-75
2024/01/22 00:46:00;;;;;;;3.45;3.03;;;8.10;99.90;;;;;;5006823;28;20248;-74
2024/01/22 00:48:27;;;;;;;8.90;3.30;;;8.10;99.90;;;;;;4996653;28;20205;-73
2024/01/22 00:50:54;;;;;;;8.50;2.45;;;8.20;99.90;;;;;;4995830;28;20269;-75
2024/01/22 00:53:21;;;;;;;8.93;3.20;;;8.20;99.90;;;;;;4995763;28;20288;-73
2024/01/22 00:55:48;;;;;;;7.35;3.20;;;8.20;99.90;;;;;;4996071;28;20210;-73
2024/01/22 00:58:16;;;;;;;5.20;3.20;;;8.10;99.90;;;;;;5008543;28;20224;-73
2024/01/22 01:00:43;;;;;;;4.93;3.13;;;8.20;99.90;;;;;;5005535;28;20233;-72
2024/01/22 01:03:10;;;;;;;3.42;2.17;;;8.10;99.90;;;;;;5007226;28;20277;-73
2024/01/22 01:05:37;;;;;;;6.80;3.85;;;8.20;99.90;;;;;;5009949;28;20668;-72
2024/01/22 01:08:05;;;;;;;9.40;3.10;;;8.30;99.90;;;;;;5002065;28;20195;-72
2024/01/22 01:10:32;;;;;;;4.50;2.65;;;8.30;99.90;;;;;;5009720;28;20197;-73
2024/01/22 01:12:59;;;;;;;5.07;2.80;;;8.40;99.90;;;;;;5000688;28;20636;-73
2024/01/22 01:15:27;;;;;;;6.95;2.97;;;8.30;99.90;;;;;;5004379;28;20206;-73
2024/01/22 01:17:54;;;;;;;4.35;2.95;;;8.20;99.90;;;;;;5000906;28;20247;-73
2024/01/22 01:20:21;;;;;;;4.53;2.50;;;8.10;99.90;;;;;;5002052;28;20641;-74
2024/01/22 01:22:48;;;;;;;3.63;2.50;;;8.20;99.90;;;;;;4995608;28;20238;-74
2024/01/22 01:25:15;;;;;;;9.98;3.08;;;8.20;99.90;;;;;;4996195;28;20230;-74
2024/01/22 01:27:42;;;;;;;5.95;2.60;;;8.10;99.90;;;;;;5002070;28;20205;-73
2024/01/22 01:30:11;;;;;;;8.25;3.40;;;8.20;99.90;;;;;;5010487;28;20284;-75
2024/01/22 01:32:39;;;;;;;6.10;2.40;;;8.20;99.90;;;;;;5009916;28;20279;-74
2024/01/22 01:35:07;;;;;;;5.18;3.03;;;8.20;99.90;;;;;;5010292;28;20202;-75
2024/01/22 01:37:34;;;;;;;8.82;2.75;;;8.10;99.90;;;;;;5006605;28;20228;-77
2024/01/22 01:40:01;;;;;;;6.38;2.90;;;8.10;99.90;;;;;;4999668;28;20237;-74
2024/01/22 01:42:28;;;;;;;5.93;3.50;;;8.20;99.90;;;;;;5009605;28;20256;-76
2024/01/22 01:44:55;;;;;;;4.38;2.50;;;8.20;99.90;;;;;;5001235;28;20202;-76
2024/01/22 01:47:23;;;;;;;4.05;2.75;;;8.30;99.90;;;;;;5008517;28;20197;-75
2024/01/22 01:49:52;;;;;;;3.53;2.55;;;8.30;99.90;;;;;;5009216;28;20237;-73
2024/01/22 01:52:20;;;;;;;11.85;3.42;;;8.30;99.90;;;;;;4994920;28;20222;-72
2024/01/22 01:54:48;;;;;;;6.75;3.25;;;8.30;99.90;;;;;;5005854;28;20202;-75
2024/01/22 01:57:15;;;;;;;6.10;2.90;;;8.40;99.90;;;;;;5008910;28;20566;-74
2024/01/22 01:59:44;;;;;;;7.65;4.45;;;8.40;99.90;;;;;;5005750;28;20636;-75
2024/01/22 02:02:11;;;;;;;7.20;3.45;;;8.50;99.90;;;;;;5007150;28;20229;-74
2024/01/22 02:04:38;;;;;;;5.13;2.47;;;8.50;99.90;;;;;;4999560;28;20296;-75
2024/01/22 02:07:06;;;;;;;6.30;3.10;;;8.50;99.90;;;;;;5006915;28;20234;-73
2024/01/22 02:09:46;;;;;;;3.55;2.33;;;8.60;99.90;;;;;;4996689;28;20248;-76
2024/01/22 02:12:13;;;;;;;3.97;2.35;;;8.60;99.90;;;;;;5011178;28;20225;-74
2024/01/22 02:14:40;;;;;;;3.90;2.50;;;8.60;99.90;;;;;;4996673;28;20670;-74
2024/01/22 02:17:07;;;;;;;3.38;2.30;;;8.60;99.90;;;;;;4999361;28;20575;-76
2024/01/22 02:19:34;;;;;;;5.13;2.30;;;8.70;99.90;;;;;;4997787;28;20288;-75
2024/01/22 02:22:01;;;;;;;5.00;3.17;;;8.70;99.90;;;;;;5009824;28;20594;-76
2024/01/22 02:24:29;;;;;;;5.80;2.60;;;8.80;99.90;;;;;;5004317;28;20329;-76
2024/01/22 02:26:56;;;;;;;5.43;3.00;;;8.80;99.90;;;;;;5008960;28;20249;-75
2024/01/22 02:29:23;;;;;;;5.68;2.50;;;8.80;99.90;;;;;;5005540;28;20206;-75
2024/01/22 02:31:52;;;;;;;5.30;3.28;;;8.80;99.90;;;;;;5004320;28;20233;-75
2024/01/22 02:34:19;;;;;;;3.22;2.85;;;8.80;99.90;;;;;;5003651;28;20663;-75
2024/01/22 02:36:47;;;;;;;5.72;2.30;;;8.90;99.90;;;;;;5007882;28;20293;-75
2024/01/22 02:39:14;;;;;;;5.78;2.53;;;8.90;99.90;;;;;;4992722;28;20312;-75
2024/01/22 02:41:42;;;;;;;4.22;2.35;;;8.90;99.90;;;;;;5008070;28;20201;-74
2024/01/22 02:44:09;;;;;;;5.95;2.72;;;8.90;99.90;;;;;;5007447;28;20525;-75
2024/01/22 02:46:36;;;;;;;2.70;2.50;;;9.00;99.90;;;;;;5004607;28;20202;-74
2024/01/22 02:49:03;;;;;;;8.80;2.60;;;9.00;99.90;;;;;;5005176;28;20253;-75
2024/01/22 02:51:30;;;;;;;5.15;2.92;;;9.10;99.90;;;;;;4999945;28;20198;-74
2024/01/22 02:53:57;;;;;;;3.47;2.25;;;9.00;99.90;;;;;;5002980;28;20256;-75
2024/01/22 02:56:25;;;;;;;4.97;2.00;;;9.10;99.90;;;;;;5001263;28;20202;-73
2024/01/22 02:58:53;;;;;;;3.25;2.20;;;9.10;99.90;;;;;;4994128;28;20227;-75
2024/01/22 03:01:20;;;;;;;1.98;1.80;;;9.20;99.90;;;;;;4993024;28;20237;-75
2024/01/22 03:03:47;;;;;;;5.00;2.47;;;9.20;99.90;;;;;;4997133;28;20328;-74
2024/01/22 03:06:14;;;;;;;3.03;2.00;;;9.30;99.90;;;;;;4997318;28;20210;-75
2024/01/22 03:08:41;;;;;;;2.83;2.30;;;9.30;99.90;;;;;;5006347;28;20256;-75
2024/01/22 03:11:08;;;;;;;2.85;1.65;;;9.20;99.90;;;;;;4992888;28;20209;-74
2024/01/22 03:13:36;;;;;;;3.15;2.13;;;9.20;99.90;;;;;;5005709;28;20233;-74
2024/01/22 03:16:04;;;;;;;4.97;2.40;;;9.30;99.90;;;;;;5003595;28;20302;-75
2024/01/22 03:18:32;;;;;;;3.83;2.22;;;9.30;99.90;;;;;;4998016;28;20284;-73
2024/01/22 03:20:59;;;;;;;4.43;2.47;;;9.30;99.90;;;;;;5006486;28;20202;-75
2024/01/22 03:23:25;;;;;;;3.67;1.85;;;9.40;99.90;;;;;;5003598;28;20233;-74
2024/01/22 03:25:52;;;;;;;3.33;2.13;;;9.40;99.90;;;;;;5001567;28;20210;-75
2024/01/22 03:28:21;;;;;;;5.65;2.60;;;9.40;99.90;;;;;;4997832;28;20617;-75
2024/01/22 03:30:47;;;;;;;8.98;2.10;;;9.40;99.90;;;;;;5006737;28;20209;-73
2024/01/22 03:33:16;;;;;;;4.28;2.72;;;9.50;99.90;;;;;;5000857;28;20743;-74
2024/01/22 03:35:45;;;;;;;3.05;1.90;;;9.50;99.90;;;;;;5001569;28;20268;-74
2024/01/22 03:38:12;;;;;;;6.57;2.40;;;9.50;99.90;;;;;;5000242;28;20308;-74
2024/01/22 03:40:39;;;;;;;4.00;2.50;;;9.40;99.90;;;;;;4996294;28;20665;-73
2024/01/22 03:43:06;;;;;;;3.00;1.80;;;9.30;99.90;;;;;;4999111;28;20272;-75
2024/01/22 03:45:34;;;;;;;4.43;2.55;;;9.30;99.90;;;;;;5002258;28;20238;-75
2024/01/22 03:48:01;;;;;;;4.60;2.60;;;9.30;99.90;;;;;;5005661;28;20279;-75
2024/01/22 03:50:29;;;;;;;5.75;2.53;;;9.40;99.90;;;;;;5006276;28;20612;-73
2024/01/22 03:52:56;;;;;;;4.13;2.55;;;9.30;99.90;;;;;;5002182;28;20230;-75
2024/01/22 03:55:26;;;;;;;4.25;2.15;;;9.40;99.90;;;;;;5015630;28;20237;-75
2024/01/22 03:57:53;;;;;;;2.47;1.80;;;9.40;99.90;;;;;;5010302;28;20244;-73
2024/01/22 04:00:20;;;;;;;2.70;2.08;;;9.40;99.90;;;;;;5007888;28;20617;-73
2024/01/22 04:02:46;;;;;;;3.65;1.70;;;9.40;99.90;;;;;;5002351;28;20233;-75
2024/01/22 04:05:13;;;;;;;2.47;2.27;;;9.40;99.90;;;;;;5004726;28;20201;-73
2024/01/22 04:07:42;;;;;;;2.97;2.20;;;9.50;99.90;;;;;;5006364;28;20544;-75
2024/01/22 04:10:09;;;;;;;4.53;3.30;;;9.50;99.90;;;;;;5000696;28;20202;-73
2024/01/22 04:12:37;;;;;;;4.55;2.80;;;9.50;99.90;;;;;;4998845;28;20291;-73
2024/01/22 04:15:05;;;;;;;5.68;2.75;;;9.40;99.90;;;;;;5007905;28;20210;-75
2024/01/22 04:17:32;;;;;;;5.85;3.20;;;9.30;99.90;;;;;;5013458;28;20718;-76
2024/01/22 04:19:59;;;;;;;5.95;2.95;;;9.10;99.90;;;;;;5006522;28;20703;-75
2024/01/22 04:22:26;;;;;;;3.50;2.47;;;9.00;99.90;;;;;;5007093;28;20241;-74
2024/01/22 04:24:54;;;;;;;6.00;2.85;;;9.10;99.90;;;;;;5013090;28;20267;-74
2024/01/22 04:27:21;;;;;;;3.58;2.42;;;9.00;99.90;;;;;;5005517;28;20245;-75
2024/01/22 04:29:48;;;;;;;3.72;2.55;;;8.90;99.90;;;;;;4997787;28;20569;-74
2024/01/22 04:32:15;;;;;;;4.47;2.90;;;8.90;99.90;;;;;;4998337;28;20221;-74
2024/01/22 04:34:42;;;;;;;4.60;2.95;;;8.90;99.90;;;;;;5005904;28;20245;-74
2024/01/22 04:37:09;;;;;;;5.07;2.50;;;8.90;99.90;;;;;;5002398;28;20245;-75
2024/01/22 04:39:37;;;;;;;3.70;2.30;;;9.00;99.90;;;;;;5014415;28;20272;-73
2024/01/22 04:42:05;;;;;;;2.92;2.63;;;9.00;99.90;;;;;;5007477;28;20275;-73
2024/01/22 04:44:32;;;;;;;4.75;2.90;;;9.00;99.90;;;;;;5001489;28;20576;-74
2024/01/22 04:47:00;;;;;;;3.53;2.58;;;9.00;99.90;;;;;;5004510;28;20206;-73
2024/01/22 04:49:26;;;;;;;3.40;2.13;;;9.00;99.90;;;;;;5001194;28;20248;-73
2024/01/22 04:51:53;;;;;;;2.83;2.40;;;9.10;99.90;;;;;;5003230;28;20307;-73
2024/01/22 04:54:21;;;;;;;2.47;2.28;;;9.10;99.90;;;;;;5003572;28;20217;-73
2024/01/22 04:56:48;;;;;;;4.90;2.70;;;9.10;99.90;;;;;;5003964;28;20210;-73
2024/01/22 04:59:17;;;;;;;2.60;2.03;;;9.20;99.90;;;;;;5001459;28;20695;-75
2024/01/22 05:01:44;;;;;;;5.18;2.80;;;9.20;99.90;;;;;;5001154;28;20221;-73
2024/01/22 05:04:11;;;;;;;2.30;2.10;;;9.20;99.90;;;;;;5001325;28;20260;-75
2024/01/22 05:06:38;;;;;;;3.30;2.38;;;9.20;99.90;;;;;;5001684;28;20288;-74
2024/01/22 05:09:06;;;;;;;2.85;2.47;;;9.30;99.90;;;;;;4996696;28;20260;-74
2024/01/22 05:11:33;;;;;;;6.65;2.20;;;9.30;99.90;;;;;;5005274;28;20217;-74
2024/01/22 05:14:00;;;;;;;2.85;2.03;;;9.30;99.90;;;;;;5002246;28;20288;-74
2024/01/22 05:16:28;;;;;;;6.80;2.40;;;9.30;99.90;;;;;;5002668;28;20285;-75
2024/01/22 05:18:55;;;;;;;8.38;2.15;;;9.40;99.90;;;;;;5004259;28;20225;-74
2024/01/22 05:21:22;;;;;;;3.75;2.03;;;9.40;99.90;;;;;;4994752;28;20202;-77
2024/01/22 05:23:50;;;;;;;3.58;1.98;;;9.40;99.90;;;;;;5003763;28;20751;-75
2024/01/22 05:26:17;;;;;;;3.20;1.88;;;9.40;99.90;;;;;;4999956;28;20216;-73
2024/01/22 05:28:44;;;;;;;3.05;2.13;;;9.50;99.90;;;;;;4997207;28;20194;-76
2024/01/22 05:31:11;;;;;;;5.97;1.70;;;9.50;99.90;;;;;;5004887;28;20201;-74
2024/01/22 05:33:39;;;;;;;4.40;1.77;;;9.50;99.90;;;;;;4996904;28;20229;-75
2024/01/22 05:36:08;;;;;;;3.65;1.90;;;9.60;99.90;;;;;;4999965;28;20271;-76
2024/01/22 05:38:35;;;;;;;1.73;1.60;;;9.60;99.90;;;;;;5004948;28;20206;-76
2024/01/22 05:41:02;;;;;;;4.78;1.50;;;9.60;99.90;;;;;;5003501;28;20268;-76
2024/01/22 05:43:29;;;;;;;2.40;1.88;;;9.60;99.90;;;;;;4996617;28;20222;-75
2024/01/22 05:45:57;;;;;;;2.70;2.33;;;9.70;99.90;;;;;;4996815;28;20268;-76
2024/01/22 05:48:24;;;;;;;3.17;1.55;;;9.70;99.90;;;;;;5005715;28;20206;-75
2024/01/22 05:50:52;;;;;;;3.67;1.80;;;9.70;99.90;;;;;;5004044;28;20210;-76
2024/01/22 05:53:19;;;;;;;3.15;1.75;;;9.80;99.90;;;;;;4998811;28;20285;-76
2024/01/22 05:55:46;;;;;;;3.95;1.95;;;9.80;99.90;;;;;;5002625;28;20716;-75
2024/01/22 05:58:13;;;;;;;2.50;1.90;;;9.80;99.90;;;;;;5006435;28;20661;-76
2024/01/22 06:00:40;;;;;;;3.00;2.08;;;9.80;99.90;;;;;;4997122;28;20296;-77
2024/01/22 06:03:07;;;;;;;3.40;1.75;;;9.80;99.90;;;;;;5009199;28;20270;-74
2024/01/22 06:05:36;;;;;;;3.35;1.95;;;9.90;99.90;;;;;;5007224;28;20207;-75
2024/01/22 06:08:05;;;;;;;1.75;1.63;;;9.90;99.90;;;;;;5002189;28;20197;-74
2024/01/22 06:10:34;;;;;;;2.22;1.85;;;9.90;99.90;;;;;;5009027;28;20233;-76
2024/01/22 06:13:02;;;;;;;3.20;1.88;;;9.90;99.90;;;;;;5002004;28;20226;-75
2024/01/22 06:15:29;;;;;;;2.50;2.00;;;9.90;99.90;;;;;;4996827;28;20209;-73
2024/01/22 06:17:56;;;;;;;1.90;1.80;;;9.80;99.90;;;;;;4996167;28;20237;-75
2024/01/22 06:20:23;;;;;;;1.65;1.52;;;9.80;99.90;;;;;;5009390;28;20300;-76
2024/01/22 06:22:50;;;;;;;4.13;2.20;;;9.80;99.90;;;;;;5002303;28;20333;-76
2024/01/22 06:25:18;;;;;;;3.58;2.10;;;9.80;99.90;;;;;;4995946;28;20194;-76
2024/01/22 06:27:45;;;;;;;3.28;2.13;;;9.90;99.90;;;;;;5003373;28;20205;-77
2024/01/22 06:30:15;;;;;;;2.60;2.40;;;9.90;99.90;;;;;;5003279;28;20225;-76
2024/01/22 06:32:42;;;;;;;3.08;2.30;;;9.90;99.90;;;;;;4997549;28;20321;-75
2024/01/22 06:35:09;;;;;;;1.95;1.80;;;10.00;99.90;;;;;;4993274;28;20202;-76
2024/01/22 06:37:36;;;;;;;2.03;1.83;;;10.00;99.90;;;;;;4999658;28;20669;-74
2024/01/22 06:40:03;;;;;;;2.33;2.17;;;10.00;99.90;;;;;;4996217;28;20233;-76
2024/01/22 06:42:32;;;;;;;3.47;2.03;;;10.10;99.90;;;;;;4996658;28;20280;-75
2024/01/22 06:44:59;;;;;;;4.13;2.28;;;10.10;99.90;;;;;;5002882;28;20202;-75
2024/01/22 06:47:26;;;;;;;2.70;2.45;;;10.20;99.90;;;;;;5009966;28;20209;-75
2024/01/22 06:49:53;;;;;;;3.47;2.42;;;10.10;99.90;;;;;;4996282;28;20283;-75
2024/01/22 06:52:20;;;;;;;2.30;2.10;;;10.10;99.90;;;;;;5002638;28;20229;-75
2024/01/22 06:54:47;;;;;;;2.40;2.05;;;10.10;99.90;;;;;;4995911;28;20274;-75
2024/01/22 06:57:14;;;;;;;2.92;2.72;;;10.10;99.90;;;;;;4999713;28;20738;-77
2024/01/22 06:59:42;;;;;;;5.60;2.63;;;10.10;99.90;;;;;;5002644;28;20233;-74
2024/01/22 07:02:09;;;;;;;4.30;2.30;;;10.20;99.90;;;;;;5003120;28;20300;-76
2024/01/22 07:04:37;;;;;;;1.63;1.52;;;10.20;99.90;;;;;;5004479;28;20604;-76
2024/01/22 07:07:04;;;;;;;4.28;2.90;;;10.20;99.90;;;;;;5000553;28;20248;-77
2024/01/22 07:09:31;;;;;;;3.33;3.03;;;10.20;99.90;;;;;;4996064;28;20202;-77
2024/01/22 07:11:59;;;;;;;5.60;3.53;;;10.10;99.90;;;;;;5006685;28;20233;-76
2024/01/22 07:14:26;;;;;;;5.63;3.33;;;10.10;99.90;;;;;;4999282;28;20209;-77
2024/01/22 07:16:55;;;;;;;4.30;3.05;;;10.10;99.90;;;;;;5010504;28;20209;-76
2024/01/22 07:19:22;;;;;;;3.05;2.72;;;10.10;99.90;;;;;;5005232;28;20213;-74
2024/01/22 07:21:49;;;;;;;5.63;3.17;;;10.10;99.90;;;;;;5008882;28;20743;-75
2024/01/22 07:24:16;;;;;;;3.35;3.08;;;10.10;99.90;;;;;;5008316;28;20217;-75
2024/01/22 07:26:46;;;;;;;4.32;4.03;;;10.10;99.90;;;;;;5001294;28;20210;-75
2024/01/22 07:29:13;;;;;;;4.20;3.80;;;10.10;99.90;;;;;;5013094;28;20209;-75
2024/01/22 07:31:40;;;;;;;4.07;3.78;;;10.10;99.90;;;;;;5003939;28;20264;-75
2024/01/22 07:34:09;;;;;;;4.75;4.18;;;10.10;99.90;;;;;;5001960;28;20252;-77
2024/01/22 07:36:36;;;;;;;4.45;3.97;;;10.10;99.90;;;;;;4997798;28;20259;-76
2024/01/22 07:39:03;;;;;;;4.63;4.25;;;10.10;99.90;;;;;;5003638;28;20608;-76
2024/01/22 07:41:30;;;;;;;4.18;3.78;;;10.20;99.90;;;;;;5001370;28;20293;-76
2024/01/22 07:43:57;;;;;;;4.60;3.83;;;10.20;99.90;;;;;;5006295;28;20209;-77
2024/01/22 07:46:24;;;;;;;4.53;4.13;;;10.30;99.90;;;;;;5004782;28;20206;-76
2024/01/22 07:48:52;;;;;;;3.38;3.08;;;10.40;99.90;;;;;;5002052;28;20641;-75
2024/01/22 07:51:20;;;;;;;3.63;3.33;;;10.40;99.90;;;;;;5005853;28;20229;-76
2024/01/22 07:53:49;;;;;;;3.50;3.17;;;10.50;99.90;;;;;;5012134;28;20762;-76
2024/01/22 07:56:15;;;;;;;3.95;3.55;;;10.50;99.90;;;;;;5007514;28;20617;-75
2024/01/22 07:58:43;;;;;;;4.32;4.03;;;10.50;99.90;;;;;;5012685;28;20214;-76
2024/01/22 08:01:10;;;;;;;5.15;3.50;;;10.60;99.90;;;;;;5005306;28;20738;-78
2024/01/22 08:03:38;;;;;;;3.78;3.47;;;10.60;99.90;;;;;;5006470;28;20232;-75
2024/01/22 08:06:05;;;;;;;4.05;3.58;;;10.60;99.90;;;;;;5005708;28;20598;-76
2024/01/22 08:08:34;;;;;;;3.17;2.90;;;10.70;99.90;;;;;;5006579;28;20614;-75
2024/01/22 08:11:01;;;;;;;3.10;2.90;;;10.70;99.90;;;;;;5005602;28;20274;-76
2024/01/22 08:13:28;;;;;;;3.15;2.85;;;10.80;99.90;;;;;;5011202;28;20561;-76
2024/01/22 08:15:55;;;;;;;3.03;2.72;;;10.80;99.90;;;;;;4998057;28;20731;-76
2024/01/22 08:18:22;;;;;;;4.38;2.80;;;10.80;99.90;;;;;;5000469;28;20221;-76
2024/01/22 08:20:49;;;;;;;3.22;2.45;;;10.90;99.90;;;;;;5009438;28;20221;-76
2024/01/22 08:23:16;;;;;;;3.17;2.35;;;10.90;99.90;;;;;;5006632;28;20261;-75
2024/01/22 08:25:44;;;;;;;2.88;2.22;;;11.00;99.90;;;;;;5010167;28;20202;-74
2024/01/22 08:28:11;;;;;;;4.10;2.67;;;11.10;99.90;;;;;;5007722;28;20213;-75
2024/01/22 08:30:38;;;;;;;4.55;2.13;;;11.10;99.90;;;;;;5005761;28;20213;-74
2024/01/22 08:33:06;;;;;;;6.03;2.00;;;11.20;99.90;;;;;;5009136;28;20222;-74
2024/01/22 08:35:33;;;;;;;4.07;2.00;;;11.20;99.90;;;;;;5000357;28;20269;-77
2024/01/22 08:38:00;;;;;;;3.67;1.52;;;11.30;99.90;;;;;;5000088;28;20253;-73
2024/01/22 08:40:27;;;;;;;3.83;1.60;;;11.40;99.90;;;;;;5008969;28;20309;-73
2024/01/22 08:42:56;;;;;;;3.88;2.00;;;11.40;99.90;;;;;;5009002;28;20229;-74
2024/01/22 08:45:23;;;;;;;2.33;1.70;;;11.40;99.90;;;;;;5005829;28;20198;-75
2024/01/22 08:47:51;;;;;;;3.40;1.55;;;11.50;99.90;;;;;;5010753;28;20202;-76
2024/01/22 08:50:21;;;;;;;4.18;1.58;;;11.50;99.90;;;;;;5002573;28;20247;-78
2024/01/22 08:52:48;;;;;;;3.95;2.03;;;11.60;99.90;;;;;;5007528;28;20226;-78
2024/01/22 08:55:18;;;;;;;4.57;1.80;;;11.60;99.90;;;;;;5007406;28;20197;-77
2024/01/22 08:57:46;;;;;;;5.32;1.48;;;11.70;99.90;;;;;;5002176;28;20202;-76
2024/01/22 09:00:15;;;;;;;6.13;2.15;;;11.70;99.90;;;;;;4999295;28;20230;-77
2024/01/22 09:02:44;;;;;;;5.65;2.10;;;11.70;99.90;;;;;;5006241;28;20225;-75
2024/01/22 09:05:12;;;;;;;4.53;1.65;;;11.90;99.90;;;;;;5004388;28;20198;-77
2024/01/22 09:07:41;;;;;;;3.85;1.10;;;11.80;99.90;;;;;;5012050;28;20263;-76
2024/01/22 09:10:08;;;;;;;3.25;1.40;;;11.90;99.90;;;;;;5003359;28;20202;-76
2024/01/22 09:12:36;;;;;;;4.88;2.40;;;11.80;99.90;;;;;;5003421;28;20739;-76
2024/01/22 09:15:04;;;;;;;5.30;1.92;;;11.70;99.90;;;;;;5001523;28;20669;-76
2024/01/22 09:17:32;;;;;;;3.33;1.38;;;11.70;99.90;;;;;;5009438;28;20210;-76
2024/01/22 09:19:59;;;;;;;3.35;1.42;;;11.60;99.90;;;;;;5002566;28;20766;-77
2024/01/22 09:22:27;;;;;;;2.00;1.80;;;11.70;99.90;;;;;;5001178;28;20265;-75
2024/01/22 09:24:54;;;;;;;1.80;1.10;;;11.60;99.90;;;;;;5001668;28;20206;-76
2024/01/22 09:27:21;;;;;;;1.73;1.30;;;11.80;99.90;;;;;;5006080;28;20212;-76
2024/01/22 09:29:47;;;;;;;7.57;1.58;;;11.70;99.90;;;;;;5013492;28;20209;-76
2024/01/22 09:32:15;;;;;;;6.43;1.80;;;11.80;99.90;;;;;;5003959;28;20224;-77
2024/01/22 09:34:43;;;;;;;5.03;1.63;;;11.80;99.90;;;;;;5001714;28;20448;-79
2024/01/22 09:37:11;;;;;;;2.58;1.65;;;11.80;99.90;;;;;;4998512;28;20198;-77
2024/01/22 09:39:38;;;;;;;3.95;1.50;;;11.80;99.90;;;;;;5003125;28;20202;-75
2024/01/22 09:42:06;;;;;;;5.43;2.17;;;11.80;99.90;;;;;;5003498;28;20308;-75
2024/01/22 09:44:34;;;;;;;3.10;1.50;;;11.80;99.90;;;;;;4999474;28;20335;-78
2024/01/22 09:47:03;;;;;;;4.60;1.75;;;11.70;99.90;;;;;;5005620;28;20667;-77
2024/01/22 09:49:31;;;;;;;5.80;1.65;;;11.60;99.90;;;;;;5008100;28;20202;-76
2024/01/22 09:52:01;;;;;;;4.68;1.67;;;11.60;99.90;;;;;;5008630;28;20225;-76
2024/01/22 09:54:30;;;;;;;6.68;2.03;;;11.70;99.90;;;;;;5003974;28;20201;-76
2024/01/22 09:56:59;;;;;;;7.68;1.85;;;11.70;99.90;;;;;;5006344;28;20251;-77
2024/01/22 09:59:29;;;;;;;13.32;2.80;;;11.80;99.90;;;;;;5004918;28;20209;-77
2024/01/22 10:01:57;;;;;;;5.93;2.00;;;11.80;99.90;;;;;;5008706;28;20229;-76
2024/01/22 10:04:26;;;;;;;4.60;2.42;;;11.70;99.90;;;;;;5004760;28;20708;-77
2024/01/22 10:06:53;;;;;;;11.18;2.60;;;11.70;99.90;;;;;;5004986;28;20301;-79
2024/01/22 10:09:22;;;;;;;7.07;2.90;;;11.70;99.90;;;;;;5007453;28;20591;-79
2024/01/22 10:11:49;;;;;;;5.35;2.15;;;11.70;99.90;;;;;;5001434;28;20222;-77
2024/01/22 10:14:17;;;;;;;11.38;2.85;;;11.60;99.90;;;;;;4997999;28;20206;-79
2024/01/22 10:16:44;;;;;;;7.95;3.42;;;11.50;99.90;;;;;;5003675;28;20209;-79
2024/01/22 10:19:12;;;;;;;6.38;2.75;;;11.50;99.90;;;;;;4997773;28;20202;-79
2024/01/22 10:21:39;;;;;;;5.00;2.53;;;11.50;99.90;;;;;;5003851;28;20284;-78
2024/01/22 10:24:08;;;;;;;9.90;2.00;;;11.50;99.90;;;;;;5007815;28;20240;-78
2024/01/22 10:26:38;;;;;;;6.78;2.78;;;11.50;99.90;;;;;;5007673;28;20225;-78
2024/01/22 10:29:18;;;;;;;8.75;3.38;;;11.40;99.90;;;;;;5002212;28;20205;-77
2024/01/22 10:31:59;;;;;;;7.70;2.75;;;11.30;99.90;;;;;;4997847;28;20240;-78
2024/01/22 10:34:28;;;;;;;10.73;2.10;;;11.30;99.90;;;;;;5007220;28;20237;-78
2024/01/22 10:37:08;;;;;;;6.78;2.85;;;11.30;99.90;;;;;;4999265;28;20214;-77
2024/01/22 10:39:36;;;;;;;3.25;2.15;;;11.30;99.90;;;;;;5002219;28;20267;-77
2024/01/22 10:42:10;;;;;;;8.60;3.30;;;11.20;99.90;;;;;;4995806;28;20242;-77
2024/01/22 10:44:37;;;;;;;20.95;3.97;;;11.20;99.90;;;;;;4999162;28;20205;-78
2024/01/22 10:47:05;;;;;;;8.52;2.60;;;11.20;99.90;;;;;;5002252;28;20218;-77
2024/01/22 10:49:33;;;;;;;8.77;2.90;;;11.20;99.90;;;;;;4999088;28;20527;-78
2024/01/22 10:52:02;;;;;;;9.65;4.10;;;11.30;99.90;;;;;;5009209;28;20232;-78
2024/01/22 10:54:29;;;;;;;9.57;2.78;;;11.30;99.90;;;;;;4997484;28;20202;-76
2024/01/22 10:57:06;;;;;;;8.88;3.78;;;11.40;99.90;;;;;;5010785;28;20201;-77
2024/01/22 10:59:36;;;;;;;8.88;2.75;;;11.50;99.90;;;;;;5005987;28;20635;-79
2024/01/22 11:02:05;;;;;;;8.90;3.45;;;11.40;99.90;;;;;;5000482;28;20233;-78
2024/01/22 11:04:34;;;;;;;14.63;2.90;;;11.30;99.90;;;;;;5009853;28;20303;-79
2024/01/22 11:07:03;;;;;;;8.35;3.30;;;11.40;99.90;;;;;;4997161;28;20237;-78
2024/01/22 11:09:33;;;;;;;14.50;4.10;;;11.40;99.90;;;;;;4994686;28;20661;-79
2024/01/22 11:12:09;;;;;;;13.55;3.05;;;11.20;99.90;;;;;;5000163;28;20222;-77
2024/01/22 11:14:39;;;;;;;18.08;4.38;;;11.30;99.90;;;;;;5002161;28;20225;-77
2024/01/22 11:17:08;;;;;;;16.50;3.85;;;11.30;99.90;;;;;;5004265;28;20201;-77
2024/01/22 11:19:35;;;;;;;9.10;4.03;;;11.50;99.90;;;;;;4995213;28;20237;-77
2024/01/22 11:22:09;;;;;;;8.52;2.75;;;11.80;99.90;;;;;;4999249;28;20257;-77
2024/01/22 11:24:36;;;;;;;11.55;3.90;;;11.90;99.90;;;;;;4998900;28;20225;-77
2024/01/22 11:27:06;;;;;;;10.35;3.47;;;11.90;99.90;;;;;;4999456;28;20272;-77
2024/01/22 11:29:34;;;;;;;14.10;3.72;;;11.90;99.90;;;;;;4996932;28;20420;-78
2024/01/22 11:32:27;;;;;;;19.55;4.68;;;12.10;99.90;;;;;;5001268;28;20663;-77
2024/01/22 11:34:57;;;;;;;9.40;3.00;;;12.00;99.90;;;;;;5000129;28;20205;-77
2024/01/22 11:37:35;;;;;;;9.30;3.75;;;11.90;99.90;;;;;;5006322;28;20208;-78
2024/01/22 11:40:03;;;;;;;12.40;3.03;;;11.90;99.90;;;;;;4994032;28;20245;-78
2024/01/22 11:42:31;;;;;;;16.63;4.40;;;12.00;99.90;;;;;;5007625;28;20232;-78
2024/01/22 11:45:07;;;;;;;16.50;4.05;;;11.90;99.90;;;;;;4997061;28;20735;-79
2024/01/22 11:47:35;;;;;;;18.70;5.00;;;11.90;99.90;;;;;;4998721;28;20264;-77
2024/01/22 11:50:06;;;;;;;11.05;4.03;;;11.80;99.90;;;;;;5002902;28;20197;-78
2024/01/22 11:52:35;;;;;;;18.88;4.28;;;11.80;99.90;;;;;;4993436;28;20222;-78
2024/01/22 11:55:03;;;;;;;12.52;4.05;;;11.80;99.90;;;;;;4995924;28;20618;-77
2024/01/22 11:57:32;;;;;;;15.27;4.20;;;11.90;99.90;;;;;;4999344;28;20202;-77
2024/01/22 12:00:05;;;;;;;24.38;5.75;;;11.90;99.90;;;;;;4998654;28;20611;-77
2024/01/22 12:02:32;;;;;;;19.33;4.50;;;11.80;99.90;;;;;;5001612;28;20233;-78
2024/01/22 12:05:06;;;;;;;12.85;4.63;;;11.70;99.90;;;;;;5005860;28;20301;-77
2024/01/22 12:07:35;;;;;;;20.00;4.28;;;11.70;99.90;;;;;;5012591;28;20235;-77
2024/01/22 12:10:02;;;;;;;13.68;4.50;;;11.70;99.90;;;;;;5000909;28;20197;-76
2024/01/22 12:12:29;;;;;;;17.50;5.68;;;11.50;99.90;;;;;;4996324;28;20588;-76
2024/01/22 12:14:57;;;;;;;18.27;5.97;;;11.60;99.90;;;;;;5001008;28;20272;-76
2024/01/22 12:17:25;;;;;;;16.77;4.75;;;11.70;99.90;;;;;;4998700;28;20217;-77
2024/01/22 12:19:55;;;;;;;18.88;8.00;;;11.70;99.90;;;;;;4998396;28;20209;-76
2024/01/22 12:22:24;;;;;;;22.25;5.40;;;11.80;99.90;;;;;;5004875;28;20757;-77
2024/01/22 12:25:06;;;;;;;16.10;5.28;;;11.80;99.90;;;;;;4999630;28;20260;-77
2024/01/22 12:27:35;;;;;;;30.88;5.88;;;11.70;99.90;;;;;;5003641;28;20213;-77
2024/01/22 12:30:03;;;;;;;17.63;5.25;;;11.70;99.90;;;;;;4998629;28;20611;-76
2024/01/22 12:32:30;;;;;;;16.38;5.55;;;11.70;99.90;;;;;;5002246;28;20284;-75
2024/01/22 12:34:58;;;;;;;20.25;6.63;;;11.70;99.90;;;;;;4997032;28;20626;-77
2024/01/22 12:37:29;;;;;;;21.55;7.10;;;11.60;99.90;;;;;;4995510;28;20206;-77
2024/01/22 12:40:17;;;;;;;19.13;5.90;;;11.50;99.90;;;;;;5000363;28;20627;-76
2024/01/22 12:42:47;;;;;;;16.98;6.68;;;11.50;99.90;;;;;;5002962;28;20293;-78
2024/01/22 12:45:14;;;;;;;10.40;5.13;;;11.60;99.90;;;;;;5000449;28;20201;-76
2024/01/22 12:47:43;;;;;;;25.42;6.93;;;11.70;99.90;;;;;;5002061;28;20208;-76
2024/01/22 12:50:11;;;;;;;16.73;5.35;;;11.70;99.90;;;;;;5011399;28;20205;-76
2024/01/22 12:52:40;;;;;;;27.35;7.50;;;11.70;99.90;;;;;;5011782;28;20285;-77
2024/01/22 12:55:09;;;;;;;27.75;6.75;;;11.60;99.90;;;;;;5004767;28;20215;-77